FW0955 Hermosillo MX current weather conditions

sailwx.info

Air temperature 19.4° C
Dewpoint 15.7° C

Last reported at 2020-May-31 12:09 UTC.
Time now 2020-May-31 12:58 UTC

Location: N 29°20' W 110°55'.
View on Google Maps.

See reports from other nearby stations

  
Tides and Currents Weather Stations Pressure Air Temp Water Temp Dewpoint Dewpoint Depression Visibility Wind Speed Wind Dir Waves Ship Positions
date/time (UTC)wind fromknots sea level pressurealtimeterstation pressurevisibilityair tempwater tempwave heightnotes
2020-May-31 12:09 19.4
2020-May-31 11:59 270 0 gusting 0 19.4
2020-May-31 11:49 270 0 gusting 1 19.4
2020-May-31 11:39 270 0 gusting 0 20.0
2020-May-31 11:29 20.0
2020-May-31 11:19 270 0 gusting 0 20.6
2020-May-31 11:09 270 0 gusting 0 20.0
2020-May-31 10:59 247 2 gusting 3 20.6
2020-May-31 10:49 247 0 gusting 0 20.6
2020-May-31 10:39 247 0 gusting 0 21.1
2020-May-31 10:29 21.1
2020-May-31 10:19 21.7
2020-May-31 10:09 247 0 gusting 2 21.7
2020-May-31 09:59 247 1 gusting 1 21.1
2020-May-31 09:49 247 1 gusting 2 21.1
2020-May-31 09:39 225 1 gusting 1 21.7
2020-May-31 09:29 22.2
2020-May-31 09:19 225 0 gusting 0 22.2
2020-May-31 09:09 225 2 gusting 3 22.2
2020-May-31 08:59 225 2 gusting 3 22.2
2020-May-31 08:49 202 1 gusting 2 22.8
2020-May-31 08:39 202 1 gusting 2 22.8
2020-May-31 08:29 202 1 gusting 2 22.8
2020-May-31 08:19 202 3 gusting 3 22.8
2020-May-31 08:09 202 1 gusting 2 23.3
2020-May-31 07:59 202 1 gusting 2 23.3
2020-May-31 07:49 202 1 gusting 1 23.3
2020-May-31 07:39 112 0 gusting 1 23.9
2020-May-31 07:29 112 1 gusting 1 23.9
2020-May-31 07:19 090 0 gusting 0 23.9
2020-May-31 07:09 202 1 gusting 2 24.4
2020-May-31 06:59 202 1 gusting 2 24.4
2020-May-31 06:49 202 1 gusting 2 25.0
2020-May-31 06:39 202 1 gusting 2 25.0
2020-May-31 06:29 180 3 gusting 4 25.6
2020-May-31 06:19 202 1 gusting 2 26.1
2020-May-31 06:09 225 4 gusting 5 26.1
2020-May-31 05:59 225 1 gusting 3 26.1
2020-May-31 05:49 202 4 gusting 5 26.1
2020-May-31 05:39 225 3 gusting 4 26.1
2020-May-31 05:29 225 2 gusting 3 26.7
2020-May-31 05:19 202 3 gusting 4 27.2
2020-May-31 05:09 202 3 gusting 4 27.8
2020-May-31 04:59 225 2 gusting 4 28.3
2020-May-31 04:49 202 2 gusting 2 28.9
2020-May-31 04:39 202 3 gusting 4 28.3
2020-May-31 04:29 202 3 gusting 3 28.9
2020-May-31 04:19 225 2 gusting 2 29.4
2020-May-31 04:09 247 2 gusting 4 30.0
2020-May-31 03:59 225 1 gusting 2 30.6
2020-May-31 03:49 225 3 gusting 4 30.6
2020-May-31 03:39 225 5 gusting 7 30.6
2020-May-31 03:29 225 4 gusting 6 30.6
2020-May-31 03:19 225 3 gusting 4 30.6
2020-May-31 03:09 225 3 gusting 4 30.6
2020-May-31 02:59 202 2 gusting 4 31.7
2020-May-31 02:49 180 2 gusting 3 32.2
2020-May-31 02:39 225 4 gusting 5 32.8
2020-May-31 02:29 225 3 gusting 5 33.3
2020-May-31 02:19 225 4 gusting 6 33.3
2020-May-31 02:09 247 6 gusting 9 33.3
2020-May-31 01:59 225 3 gusting 6 33.9
2020-May-31 01:49 247 8 gusting 10 34.4
2020-May-31 01:39 225 7 gusting 9 35.0
2020-May-31 01:29 225 6 gusting 8 35.6
2020-May-31 01:19 247 8 gusting 13 35.6
2020-May-31 01:09 225 8 gusting 13 36.1
2020-May-31 00:59 225 8 gusting 12 36.7
2020-May-31 00:49 225 8 gusting 12 36.7
2020-May-31 00:39 225 9 gusting 13 37.2
2020-May-31 00:29 225 7 gusting 13 37.2
2020-May-31 00:19 247 9 gusting 13 37.8
2020-May-31 00:09 225 8 gusting 13 38.3
2020-May-30 23:59 225 6 gusting 8 38.3
2020-May-30 23:49 225 7 gusting 10 38.9
2020-May-30 23:39 225 9 gusting 15 39.4
2020-May-30 23:29 202 7 gusting 9 39.4
2020-May-30 23:19 202 6 gusting 10 40.0
2020-May-30 23:09 202 8 gusting 11 40.6
2020-May-30 22:59 202 6 gusting 7 40.0
2020-May-30 22:49 202 4 gusting 6 40.0
2020-May-30 22:39 225 6 gusting 10 40.6
2020-May-30 22:29 202 5 gusting 6 41.1
2020-May-30 22:19 202 6 gusting 8 40.6
2020-May-30 22:09 180 2 gusting 4 40.6
2020-May-30 21:59 157 6 gusting 9 40.6
2020-May-30 21:49 225 3 gusting 5 40.6
2020-May-30 21:39 090 3 gusting 5 40.6
2020-May-30 21:29 202 4 gusting 6 40.6
2020-May-30 21:19 090 3 gusting 6 40.6
2020-May-30 21:09 202 1 gusting 3 40.0
2020-May-30 20:59 180 5 gusting 5 40.0
2020-May-30 20:49 157 6 gusting 8 40.0
2020-May-30 20:39 135 4 gusting 7 39.4
2020-May-30 20:29 090 4 gusting 6 40.0
2020-May-30 20:19 112 1 gusting 2 40.0
2020-May-30 20:09 090 1 gusting 2 39.4
2020-May-30 19:59 135 5 gusting 6 39.4
2020-May-30 19:49 292 3 gusting 5 38.9
2020-May-30 19:39 225 3 gusting 4 38.9
2020-May-30 19:29 112 2 gusting 5 38.3
2020-May-30 19:19 157 2 gusting 3 38.9
2020-May-30 19:09 180 2 gusting 4 38.3
2020-May-30 18:59 157 2 gusting 4 37.8
2020-May-30 18:49 157 3 gusting 5 37.8
2020-May-30 18:39 112 2 gusting 3 37.8
2020-May-30 18:29 045 2 gusting 2 37.2
2020-May-30 18:19 067 1 gusting 2 36.7
2020-May-30 18:09 112 3 gusting 6 36.7
2020-May-30 17:59 067 2 gusting 3 36.1
2020-May-30 17:49 135 1 gusting 3 36.1
2020-May-30 17:39 157 2 gusting 4 35.6
2020-May-30 17:29 202 1 gusting 3 35.0
2020-May-30 17:19 135 2 gusting 3 35.0
2020-May-30 17:09 112 1 gusting 2 34.4
2020-May-30 16:59 090 1 gusting 2 33.9
2020-May-30 16:49 112 1 gusting 2 33.3
2020-May-30 16:39 135 2 gusting 3 32.8
2020-May-30 16:29 090 0 gusting 1 32.2
2020-May-30 16:19 067 0 gusting 2 31.1
2020-May-30 16:09 045 0 gusting 0 30.6
2020-May-30 15:59 045 0 gusting 0 30.6
2020-May-30 15:49 045 0 gusting 1 30.6
2020-May-30 15:39 045 0 gusting 1 30.0
2020-May-30 15:29 28.3
2020-May-30 15:19 28.3
2020-May-30 15:09 022 2 gusting 3 27.8
2020-May-30 14:59 27.2
2020-May-30 14:49 26.7
2020-May-30 14:39 337 1 gusting 2 26.7
2020-May-30 14:29 337 2 gusting 2 26.7
2020-May-30 14:19 337 1 gusting 3 27.2
2020-May-30 14:09 337 2 gusting 3 27.8
2020-May-30 13:59 27.2
2020-May-30 13:49 26.1
2020-May-30 13:39 25.0
2020-May-30 13:29 337 1 gusting 2 24.4
2020-May-30 13:19 270 2 gusting 3 22.8
2020-May-30 13:09 270 0 gusting 1 22.2
2020-May-30 12:59 21.1
2020-May-30 12:49 270 0 gusting 1 21.1
2020-May-30 12:39 292 2 gusting 3 20.6
2020-May-30 12:29 270 2 gusting 3 20.6
2020-May-30 12:19 247 1 gusting 2 20.6
2020-May-30 12:09 292 1 gusting 2 21.1
2020-May-30 11:59 21.1
2020-May-30 11:49 21.7
2020-May-30 11:39 270 1 gusting 2 21.7
2020-May-30 11:29 270 1 gusting 2 22.2
2020-May-30 11:19 270 2 gusting 3 21.7
2020-May-30 11:09 292 2 gusting 3 21.7
2020-May-30 10:59 270 2 gusting 3 22.2
2020-May-30 10:49 270 3 gusting 5 21.7
2020-May-30 10:39 270 2 gusting 2 21.7
2020-May-30 10:29 315 2 gusting 2 21.7
2020-May-30 10:19 315 1 gusting 1 22.2
2020-May-30 10:09 315 0 gusting 1 22.2
2020-May-30 09:59 315 1 gusting 1 22.2
2020-May-30 09:49 337 1 gusting 2 22.8
2020-May-30 09:39 337 0 gusting 1 22.2
2020-May-30 09:29 337 0 gusting 0 22.8
2020-May-30 09:19 22.8
2020-May-30 09:09 22.2
2020-May-30 08:59 247 1 gusting 1 22.8
2020-May-30 08:49 247 3 gusting 3 22.8
2020-May-30 08:39 247 3 gusting 3 22.8
2020-May-30 08:29 247 3 gusting 4 22.8
2020-May-30 08:19 247 2 gusting 3 22.8
2020-May-30 08:09 247 2 gusting 2 23.3
2020-May-30 07:59 247 3 gusting 3 23.9
2020-May-30 07:49 247 2 gusting 2 23.9
2020-May-30 07:39 247 2 gusting 3 23.9
2020-May-30 07:29 225 2 gusting 3 23.9
2020-May-30 07:19 225 2 gusting 3 23.9
2020-May-30 07:09 225 1 gusting 2 23.9
2020-May-30 06:59 247 2 gusting 3 23.9
2020-May-30 06:49 247 3 gusting 4 23.9
2020-May-30 06:39 247 2 gusting 3 24.4
2020-May-30 06:29 270 1 gusting 2 25.0
2020-May-30 06:19 270 2 gusting 3 25.0
2020-May-30 06:09 292 3 gusting 3 25.0
2020-May-30 05:59 270 2 gusting 3 25.0
2020-May-30 05:49 247 2 gusting 3 25.6
2020-May-30 05:39 270 1 gusting 1 25.6
2020-May-30 05:29 270 0 gusting 1 25.6
2020-May-30 05:19 270 3 gusting 3 26.1
2020-May-30 05:09 112 1 gusting 2 26.1
2020-May-30 04:59 112 1 gusting 1 26.7
2020-May-30 04:49 135 2 gusting 3 27.2
2020-May-30 04:39 247 1 gusting 3 27.2
2020-May-30 04:29 225 2 gusting 3 27.2
2020-May-30 04:19 225 1 gusting 2 27.2
2020-May-30 04:09 27.8
2020-May-30 03:59 225 1 gusting 2 28.3
2020-May-30 03:49 247 0 gusting 0 28.9
2020-May-30 03:39 225 3 gusting 4 29.4
2020-May-30 03:29 202 3 gusting 5 30.0
2020-May-30 03:19 225 3 gusting 5 30.6
2020-May-30 03:09 202 3 gusting 5 30.6
2020-May-30 02:59 202 3 gusting 4 31.1
2020-May-30 02:49 157 3 gusting 5 31.7
2020-May-30 02:39 202 2 gusting 5 31.7
2020-May-30 02:29 202 4 gusting 6 32.2
2020-May-30 02:19 202 4 gusting 6 32.2
2020-May-30 02:09 225 5 gusting 6 32.8
2020-May-30 01:59 202 4 gusting 7 33.3
2020-May-30 01:51 247 8 gusting 12 33.9
2020-May-30 01:39 225 4 gusting 7 33.9
2020-May-30 01:29 225 8 gusting 11 34.4
2020-May-30 01:19 225 7 gusting 11 35.0
2020-May-30 01:09 225 6 gusting 10 35.6
2020-May-30 00:59 247 8 gusting 12 36.1
2020-May-30 00:49 225 6 gusting 10 36.1
2020-May-30 00:39 225 7 gusting 9 36.7
2020-May-30 00:29 225 6 gusting 8 37.2
2020-May-30 00:19 225 6 gusting 10 37.2
2020-May-30 00:09 225 6 gusting 9 37.8
2020-May-29 23:59 225 5 gusting 8 37.8
2020-May-29 23:49 247 6 gusting 9 37.8
2020-May-29 23:39 225 6 gusting 6 38.3
2020-May-29 23:29 225 6 gusting 8 38.3
2020-May-29 23:19 225 6 gusting 8 38.3
2020-May-29 23:09 202 6 gusting 8 38.9
2020-May-29 22:59 225 5 gusting 7 38.9
2020-May-29 22:49 180 5 gusting 10 38.9
2020-May-29 22:39 202 8 gusting 12 38.9
2020-May-29 22:29 225 5 gusting 6 39.4
2020-May-29 22:19 202 4 gusting 6 38.9
2020-May-29 22:09 202 6 gusting 8 38.9
2020-May-29 21:59 202 7 gusting 11 38.9
2020-May-29 21:49 180 2 gusting 4 38.9
2020-May-29 21:39 157 6 gusting 9 38.9
2020-May-29 21:29 202 5 gusting 7 38.9
2020-May-29 21:19 067 3 gusting 4 38.3
2020-May-29 21:09 090 3 gusting 6 38.3
2020-May-29 20:59 090 2 gusting 3 38.3
2020-May-29 20:49 112 5 gusting 6 37.8
2020-May-29 20:39 090 4 gusting 6 37.8
2020-May-29 20:29 090 2 gusting 3 37.8
2020-May-29 20:19 067 4 gusting 6 37.2
2020-May-29 20:09 135 4 gusting 6 37.2
2020-May-29 19:59 135 3 gusting 4 37.2
2020-May-29 19:49 225 1 gusting 4 37.2
2020-May-29 19:39 067 2 gusting 4 36.7
2020-May-29 19:29 090 3 gusting 6 36.1
2020-May-29 19:19 090 2 gusting 3 36.1
2020-May-29 19:09 090 2 gusting 6 35.6
2020-May-29 18:59 112 2 gusting 3 35.6
2020-May-29 18:49 090 2 gusting 3 35.6
2020-May-29 18:39 112 1 gusting 3 35.6
2020-May-29 18:29 135 2 gusting 3 34.4
2020-May-29 18:19 090 3 gusting 5 34.4
2020-May-29 18:09 135 2 gusting 5 34.4
2020-May-29 17:59 090 2 gusting 6 33.9
2020-May-29 17:49 090 1 gusting 3 33.9
2020-May-29 17:39 112 1 gusting 5 33.3
2020-May-29 17:29 067 2 gusting 4 32.8
2020-May-29 17:19 090 1 gusting 3 32.2
2020-May-29 17:09 090 2 gusting 3 32.2
2020-May-29 16:59 090 1 gusting 4 31.7
2020-May-29 16:49 045 1 gusting 3 31.1
2020-May-29 16:39 067 1 gusting 3 31.1
2020-May-29 16:29 090 1 gusting 3 30.6
2020-May-29 16:19 112 2 gusting 3 30.6
2020-May-29 16:09 090 1 gusting 2 30.0
2020-May-29 15:59 067 2 gusting 2 30.0
2020-May-29 15:49 29.4
2020-May-29 15:39 112 2 gusting 3 28.9
2020-May-29 15:29 067 0 gusting 2 28.3
2020-May-29 15:19 112 1 gusting 2 28.3
2020-May-29 15:09 067 2 gusting 2 27.8
2020-May-29 14:59 067 1 gusting 2 27.2
2020-May-29 14:49 045 1 gusting 2 26.7
2020-May-29 14:39 067 2 gusting 4 26.1
2020-May-29 14:29 315 0 gusting 1 25.6
2020-May-29 14:19 315 0 gusting 0 25.0
2020-May-29 14:09 315 1 gusting 1 24.4
2020-May-29 13:59 337 1 gusting 2 23.9
2020-May-29 13:49 337 2 gusting 3 22.8
2020-May-29 13:39 22.2
2020-May-29 13:29 337 2 gusting 3 21.1
2020-May-29 13:19 270 1 gusting 1 20.0
2020-May-29 13:09 270 0 gusting 1 18.9
2020-May-29 12:59 270 1 gusting 1 18.3
2020-May-29 12:49 270 1 gusting 2 17.8
2020-May-29 12:39 270 2 gusting 2 17.8
2020-May-29 12:29 270 2 gusting 3 17.8
2020-May-29 12:19 270 2 gusting 3 17.8
2020-May-29 12:09 270 2 gusting 3 17.8